Time;durP1;ratioP1;P1;durP2;ratioP2;P2;SDS_P1;SDS_P2;PMS_P1;PMS_P2;Temp;Humidity;BMP_temperature;BMP_pressure;BME280_temperature;BME280_humidity;BME280_pressure;Samples;Min_cycle;Max_cycle;Signal;HPM_P1;HPM_P2
2023/07/19 00:01:57;;;;;;;;;;;;;;;;;;5326355;28;20278;-73
2023/07/19 00:04:28;;;;;;;;;;;;;;;;;;5327244;28;19911;-73
2023/07/19 00:06:59;;;;;;;;;;;;;;;;;;5327119;28;20420;-73
2023/07/19 00:09:30;;;;;;;;;;;;;;;;;;5326105;28;19907;-73
2023/07/19 00:12:01;;;;;;;;;;;;;;;;;;5327257;28;19903;-72
2023/07/19 00:14:32;;;;;;;;;;;;;;;;;;5325905;28;20037;-73
2023/07/19 00:17:03;;;;;;;;;;;;;;;;;;5327059;28;20005;-73
2023/07/19 00:19:35;;;;;;;;;;;;;;;;;;5326671;28;19904;-73
2023/07/19 00:22:06;;;;;;;;;;;;;;;;;;5326379;28;19918;-73
2023/07/19 00:24:37;;;;;;;;;;;;;;;;;;5326483;28;19939;-74
2023/07/19 00:27:08;;;;;;;;;;;;;;;;;;5326960;28;19911;-73
2023/07/19 00:29:39;;;;;;;;;;;;;;;;;;5325483;28;20316;-73
2023/07/19 00:32:10;;;;;;;;;;;;;;;;;;5326663;28;19916;-73
2023/07/19 00:34:42;;;;;;;;;;;;;;;;;;5326270;28;20006;-73
2023/07/19 00:37:13;;;;;;;;;;;;;;;;;;5326032;28;19995;-73
2023/07/19 00:39:44;;;;;;;;;;;;;;;;;;5326042;28;19910;-73
2023/07/19 00:42:16;;;;;;;;;;;;;;;;;;5326459;28;19918;-73
2023/07/19 00:44:47;;;;;;;;;;;;;;;;;;5325269;28;19914;-73
2023/07/19 00:47:18;;;;;;;;;;;;;;;;;;5326349;28;20367;-73
2023/07/19 00:49:50;;;;;;;;;;;;;;;;;;5325188;28;20399;-73
2023/07/19 00:52:21;;;;;;;;;;;;;;;;;;5326346;28;19952;-73
2023/07/19 00:54:52;;;;;;;;;;;;;;;;;;5325742;28;19908;-73
2023/07/19 00:57:24;;;;;;;;;;;;;;;;;;5325427;28;19904;-73
2023/07/19 00:59:55;;;;;;;;;;;;;;;;;;5325927;28;19906;-73
2023/07/19 01:02:26;;;;;;;;;;;;;;;;;;5325945;28;20344;-73
2023/07/19 01:04:57;;;;;;;;;;;;;;;;;;5324953;28;19904;-73
2023/07/19 01:07:29;;;;;;;;;;;;;;;;;;5325743;28;19904;-73
2023/07/19 01:10:00;;;;;;;;;;;;;;;;;;5325951;28;19910;-73
2023/07/19 01:12:31;;;;;;;;;;;;;;;;;;5324511;28;19911;-73
2023/07/19 01:15:05;;;;;;;;;;;;;;;;;;5325871;28;20350;-73
2023/07/19 01:17:36;;;;;;;;;;;;;;;;;;5325368;28;20281;-73
2023/07/19 01:20:08;;;;;;;;;;;;;;;;;;5325295;28;19904;-73
2023/07/19 01:22:41;;;;;;;;;;;;;;;;;;5325397;28;20011;-72
2023/07/19 01:25:12;;;;;;;;;;;;;;;;;;5325172;28;19931;-73
2023/07/19 01:27:43;;;;;;;;;;;;;;;;;;5325352;28;19908;-73
2023/07/19 01:30:15;;;;;;;;;;;;;;;;;;5325528;28;19911;-73
2023/07/19 01:32:46;;;;;;;;;;;;;;;;;;5323958;28;19915;-73
2023/07/19 01:35:17;;;;;;;;;;;;;;;;;;5325622;28;19911;-73
2023/07/19 01:37:48;;;;;;;;;;;;;;;;;;5324745;28;19910;-73
2023/07/19 01:40:19;;;;;;;;;;;;;;;;;;5324552;28;20354;-73
2023/07/19 01:42:51;;;;;;;;;;;;;;;;;;5324576;28;19916;-72
2023/07/19 01:45:22;;;;;;;;;;;;;;;;;;5325380;28;20139;-73
2023/07/19 01:47:53;;;;;;;;;;;;;;;;;;5323955;28;19904;-73
2023/07/19 01:50:24;;;;;;;;;;;;;;;;;;5324934;28;19903;-73
2023/07/19 01:52:55;;;;;;;;;;;;;;;;;;5324895;28;19926;-73
2023/07/19 01:55:26;;;;;;;;;;;;;;;;;;5324470;28;19908;-72
2023/07/19 01:57:57;;;;;;;;;;;;;;;;;;5325034;28;20251;-72
2023/07/19 02:00:28;;;;;;;;;;;;;;;;;;5323987;28;19916;-73
2023/07/19 02:03:00;;;;;;;;;;;;;;;;;;5324734;28;20358;-73
2023/07/19 02:05:31;;;;;;;;;;;;;;;;;;5323906;28;19950;-73
2023/07/19 02:08:03;;;;;;;;;;;;;;;;;;5324453;28;19904;-73
2023/07/19 02:10:34;;;;;;;;;;;;;;;;;;5324396;28;19903;-73
2023/07/19 02:13:05;;;;;;;;;;;;;;;;;;5324896;28;20367;-73
2023/07/19 02:15:36;;;;;;;;;;;;;;;;;;5323383;28;19914;-73
2023/07/19 02:18:07;;;;;;;;;;;;;;;;;;5324753;28;19903;-72
2023/07/19 02:20:39;;;;;;;;;;;;;;;;;;5324167;28;19911;-73
2023/07/19 02:23:10;;;;;;;;;;;;;;;;;;5324002;28;19919;-72
2023/07/19 02:25:41;;;;;;;;;;;;;;;;;;5324259;28;19943;-73
2023/07/19 02:28:12;;;;;;;;;;;;;;;;;;5323983;28;19910;-73
2023/07/19 02:30:43;;;;;;;;;;;;;;;;;;5323950;28;19911;-72
2023/07/19 02:33:14;;;;;;;;;;;;;;;;;;5324358;28;20359;-73
2023/07/19 02:35:45;;;;;;;;;;;;;;;;;;5323395;28;20015;-71
2023/07/19 02:38:17;;;;;;;;;;;;;;;;;;5324707;28;19953;-71
2023/07/19 02:40:48;;;;;;;;;;;;;;;;;;5323924;28;19903;-73
2023/07/19 02:43:19;;;;;;;;;;;;;;;;;;5323945;28;20372;-73
2023/07/19 02:45:50;;;;;;;;;;;;;;;;;;5323809;28;19908;-73
2023/07/19 02:48:21;;;;;;;;;;;;;;;;;;5324587;28;19904;-73
2023/07/19 02:50:52;;;;;;;;;;;;;;;;;;5322975;28;20354;-73
2023/07/19 02:53:23;;;;;;;;;;;;;;;;;;5324086;28;19903;-73
2023/07/19 02:55:54;;;;;;;;;;;;;;;;;;5324205;28;20315;-73
2023/07/19 02:58:27;;;;;;;;;;;;;;;;;;5323344;28;19904;-73
2023/07/19 03:00:58;;;;;;;;;;;;;;;;;;5324032;28;19910;-73
2023/07/19 03:03:29;;;;;;;;;;;;;;;;;;5323026;28;19911;-73
2023/07/19 03:06:02;;;;;;;;;;;;;;;;;;5324194;28;19911;-73
2023/07/19 03:08:34;;;;;;;;;;;;;;;;;;5323899;28;20269;-73
2023/07/19 03:11:06;;;;;;;;;;;;;;;;;;5323748;28;19926;-73
2023/07/19 03:13:37;;;;;;;;;;;;;;;;;;5323764;28;19978;-71
2023/07/19 03:16:08;;;;;;;;;;;;;;;;;;5324115;28;19949;-71
2023/07/19 03:18:39;;;;;;;;;;;;;;;;;;5326807;28;19908;-73
2023/07/19 03:21:10;;;;;;;;;;;;;;;;;;5328274;28;19911;-72
2023/07/19 03:23:41;;;;;;;;;;;;;;;;;;5327643;28;20378;-72
2023/07/19 03:26:12;;;;;;;;;;;;;;;;;;5327572;28;19995;-73
2023/07/19 03:28:45;;;;;;;;;;;;;;;;;;5327544;28;20281;-73
2023/07/19 03:31:16;;;;;;;;;;;;;;;;;;5327941;28;20343;-72
2023/07/19 03:33:47;;;;;;;;;;;;;;;;;;5326747;28;19907;-73
2023/07/19 03:36:19;;;;;;;;;;;;;;;;;;5328080;28;19990;-73
2023/07/19 03:38:50;;;;;;;;;;;;;;;;;;5326421;28;19914;-73
2023/07/19 03:41:21;;;;;;;;;;;;;;;;;;5327565;28;19907;-73
2023/07/19 03:43:52;;;;;;;;;;;;;;;;;;5327154;28;19908;-72
2023/07/19 03:46:23;;;;;;;;;;;;;;;;;;5326582;28;19953;-73
2023/07/19 03:48:54;;;;;;;;;;;;;;;;;;5327197;28;19904;-73
2023/07/19 03:51:25;;;;;;;;;;;;;;;;;;5327357;28;19904;-73
2023/07/19 03:53:57;;;;;;;;;;;;;;;;;;5326334;28;20351;-73
2023/07/19 03:56:28;;;;;;;;;;;;;;;;;;5327136;28;19957;-73
2023/07/19 03:58:59;;;;;;;;;;;;;;;;;;5327282;28;20286;-72
2023/07/19 04:01:30;;;;;;;;;;;;;;;;;;5325797;28;19908;-74
2023/07/19 04:04:01;;;;;;;;;;;;;;;;;;5327340;28;20286;-73
2023/07/19 04:06:32;;;;;;;;;;;;;;;;;;5326437;28;19907;-73
2023/07/19 04:09:03;;;;;;;;;;;;;;;;;;5326583;28;19911;-73
2023/07/19 04:11:34;;;;;;;;;;;;;;;;;;5326721;28;19903;-73
2023/07/19 04:14:05;;;;;;;;;;;;;;;;;;5326389;28;20374;-73
2023/07/19 04:16:36;;;;;;;;;;;;;;;;;;5326327;28;19908;-73
2023/07/19 04:19:08;;;;;;;;;;;;;;;;;;5327005;28;19938;-73
2023/07/19 04:21:39;;;;;;;;;;;;;;;;;;5325570;28;19907;-73
2023/07/19 04:24:10;;;;;;;;;;;;;;;;;;5326793;28;19910;-75
2023/07/19 04:26:41;;;;;;;;;;;;;;;;;;5326274;28;20270;-73
2023/07/19 04:29:12;;;;;;;;;;;;;;;;;;5325589;28;19911;-73
2023/07/19 04:31:43;;;;;;;;;;;;;;;;;;5325993;28;19915;-72
2023/07/19 04:34:15;;;;;;;;;;;;;;;;;;5326978;28;19910;-73
2023/07/19 04:36:46;;;;;;;;;;;;;;;;;;5325465;28;19907;-73
2023/07/19 04:39:17;;;;;;;;;;;;;;;;;;5326719;28;19915;-73
2023/07/19 04:41:48;;;;;;;;;;;;;;;;;;5325179;28;19908;-74
2023/07/19 04:44:19;;;;;;;;;;;;;;;;;;5326940;28;20347;-73
2023/07/19 04:46:50;;;;;;;;;;;;;;;;;;5325985;28;19899;-73
2023/07/19 04:49:22;;;;;;;;;;;;;;;;;;5325769;28;19910;-72
2023/07/19 04:51:54;;;;;;;;;;;;;;;;;;5325765;28;19900;-73
2023/07/19 04:54:25;;;;;;;;;;;;;;;;;;5325958;28;19910;-73
2023/07/19 04:56:56;;;;;;;;;;;;;;;;;;5325338;28;19903;-73
2023/07/19 04:59:27;;;;;;;;;;;;;;;;;;5325915;28;19938;-73
2023/07/19 05:01:58;;;;;;;;;;;;;;;;;;5325603;28;19959;-73
2023/07/19 05:04:29;;;;;;;;;;;;;;;;;;5324688;28;19969;-72
2023/07/19 05:07:00;;;;;;;;;;;;;;;;;;5325835;28;19903;-73
2023/07/19 05:09:31;;;;;;;;;;;;;;;;;;5325443;28;20327;-73
2023/07/19 05:12:02;;;;;;;;;;;;;;;;;;5325221;28;19910;-73
2023/07/19 05:14:34;;;;;;;;;;;;;;;;;;5325294;28;20259;-73
2023/07/19 05:17:05;;;;;;;;;;;;;;;;;;5325011;28;20003;-73
2023/07/19 05:19:36;;;;;;;;;;;;;;;;;;5325031;28;20239;-73
2023/07/19 05:22:07;;;;;;;;;;;;;;;;;;5325417;28;19963;-72
2023/07/19 05:24:38;;;;;;;;;;;;;;;;;;5324287;28;20001;-72
2023/07/19 05:27:15;;;;;;;;;;;;;;;;;;5325650;28;20362;-73
2023/07/19 05:29:46;;;;;;;;;;;;;;;;;;5324997;28;19998;-72
2023/07/19 05:32:17;;;;;;;;;;;;;;;;;;5324538;28;20015;-73
2023/07/19 05:34:48;;;;;;;;;;;;;;;;;;5324708;28;19911;-73
2023/07/19 05:37:19;;;;;;;;;;;;;;;;;;5325370;28;19911;-73
2023/07/19 05:39:50;;;;;;;;;;;;;;;;;;5323070;28;19957;-73
2023/07/19 05:42:21;;;;;;;;;;;;;;;;;;5324982;28;19919;-73
2023/07/19 05:44:52;;;;;;;;;;;;;;;;;;5324713;28;19904;-73
2023/07/19 05:47:24;;;;;;;;;;;;;;;;;;5323947;28;19899;-74
2023/07/19 05:49:55;;;;;;;;;;;;;;;;;;5325046;28;19926;-73
2023/07/19 05:52:28;;;;;;;;;;;;;;;;;;5323712;28;19911;-73
2023/07/19 05:54:59;;;;;;;;;;;;;;;;;;5324633;28;19926;-73
2023/07/19 05:57:30;;;;;;;;;;;;;;;;;;5324301;28;19903;-74
2023/07/19 06:00:02;;;;;;;;;;;;;;;;;;5324096;28;19911;-73
2023/07/19 06:02:35;;;;;;;;;;;;;;;;;;5324130;28;19918;-73
2023/07/19 06:05:06;;;;;;;;;;;;;;;;;;5324578;28;19907;-73
2023/07/19 06:07:38;;;;;;;;;;;;;;;;;;5323546;28;20032;-74
2023/07/19 06:10:09;;;;;;;;;;;;;;;;;;5323758;28;19904;-73
2023/07/19 06:12:40;;;;;;;;;;;;;;;;;;5323586;28;19962;-73
2023/07/19 06:15:11;;;;;;;;;;;;;;;;;;5323626;28;19903;-72
2023/07/19 06:17:42;;;;;;;;;;;;;;;;;;5323797;28;19927;-71
2023/07/19 06:20:13;;;;;;;;;;;;;;;;;;5324656;28;20342;-73
2023/07/19 06:22:45;;;;;;;;;;;;;;;;;;5323089;28;19912;-72
2023/07/19 06:25:16;;;;;;;;;;;;;;;;;;5324861;28;20350;-73
2023/07/19 06:27:47;;;;;;;;;;;;;;;;;;5322706;28;19983;-71
2023/07/19 06:30:19;;;;;;;;;;;;;;;;;;5324149;28;20071;-71
2023/07/19 06:32:50;;;;;;;;;;;;;;;;;;5323525;28;20396;-72
2023/07/19 06:35:21;;;;;;;;;;;;;;;;;;5323053;28;19951;-69
2023/07/19 06:37:52;;;;;;;;;;;;;;;;;;5323521;28;19908;-73
2023/07/19 06:40:23;;;;;;;;;;;;;;;;;;5319581;28;19912;-73
2023/07/19 06:42:55;;;;;;;;;;;;;;;;;;5301948;28;19916;-73
2023/07/19 06:45:26;;;;;;;;;;;;;;;;;;5302844;28;19951;-73
2023/07/19 06:47:57;;;;;;;;;;;;;;;;;;5302653;28;20337;-73
2023/07/19 06:50:28;;;;;;;;;;;;;;;;;;5302345;28;19995;-73
2023/07/19 06:53:00;;;;;;;;;;;;;;;;;;5306680;28;19900;-73
2023/07/19 06:55:31;;;;;;;;;;;;;;;;;;5305643;28;20301;-74
2023/07/19 06:58:02;;;;;;;;;;;;;;;;;;5307272;28;19900;-73
2023/07/19 07:00:33;;;;;;;;;;;;;;;;;;5306600;28;19904;-74
2023/07/19 07:03:04;;;;;;;;;;;;;;;;;;5306382;28;20278;-72
2023/07/19 07:05:35;;;;;;;;;;;;;;;;;;5306252;28;19904;-73
2023/07/19 07:08:07;;;;;;;;;;;;;;;;;;5306943;28;19926;-73
2023/07/19 07:10:38;;;;;;;;;;;;;;;;;;5305682;28;19905;-74
2023/07/19 07:13:09;;;;;;;;;;;;;;;;;;5307126;28;20366;-74
2023/07/19 07:15:41;;;;;;;;;;;;;;;;;;5306178;28;19908;-74
2023/07/19 07:18:12;;;;;;;;;;;;;;;;;;5305583;28;19904;-75
2023/07/19 07:20:43;;;;;;;;;;;;;;;;;;5306287;28;19908;-74
2023/07/19 07:23:14;;;;;;;;;;;;;;;;;;5306693;28;20367;-74
2023/07/19 07:25:45;;;;;;;;;;;;;;;;;;5305408;28;19911;-73
2023/07/19 07:28:17;;;;;;;;;;;;;;;;;;5306670;28;19908;-73
2023/07/19 07:30:48;;;;;;;;;;;;;;;;;;5305123;28;19911;-73
2023/07/19 07:33:19;;;;;;;;;;;;;;;;;;5305964;28;19939;-71
2023/07/19 07:35:50;;;;;;;;;;;;;;;;;;5305855;28;19904;-71
2023/07/19 07:38:21;;;;;;;;;;;;;;;;;;5305666;28;19911;-71
2023/07/19 07:40:52;;;;;;;;;;;;;;;;;;5305703;28;19904;-72
2023/07/19 07:43:23;;;;;;;;;;;;;;;;;;5305731;28;19912;-74
2023/07/19 07:45:55;;;;;;;;;;;;;;;;;;5304759;28;19904;-72
2023/07/19 07:48:26;;;;;;;;;;;;;;;;;;5305916;28;19911;-73
2023/07/19 07:50:57;;;;;;;;;;;;;;;;;;5305868;28;20296;-72
2023/07/19 07:53:28;;;;;;;;;;;;;;;;;;5304756;28;19904;-72
2023/07/19 07:55:59;;;;;;;;;;;;;;;;;;5305802;28;19927;-72
2023/07/19 07:58:30;;;;;;;;;;;;;;;;;;5305642;28;19904;-72
2023/07/19 08:01:01;;;;;;;;;;;;;;;;;;5305361;28;20045;-72
2023/07/19 08:03:32;;;;;;;;;;;;;;;;;;5303023;28;19974;-72
2023/07/19 08:06:04;;;;;;;;;;;;;;;;;;5303161;28;20014;-72
2023/07/19 08:08:35;;;;;;;;;;;;;;;;;;5303398;28;19911;-72
2023/07/19 08:11:06;;;;;;;;;;;;;;;;;;5304124;28;20354;-72
2023/07/19 08:13:38;;;;;;;;;;;;;;;;;;5302387;28;19915;-72
2023/07/19 08:16:09;;;;;;;;;;;;;;;;;;5303844;28;19904;-73
2023/07/19 08:18:40;;;;;;;;;;;;;;;;;;5304113;28;19940;-72
2023/07/19 08:21:11;;;;;;;;;;;;;;;;;;5304918;28;19903;-72
2023/07/19 08:23:42;;;;;;;;;;;;;;;;;;5305027;28;19912;-72
2023/07/19 08:26:13;;;;;;;;;;;;;;;;;;5305448;28;20045;-72
2023/07/19 08:28:44;;;;;;;;;;;;;;;;;;5303883;28;19965;-72
2023/07/19 08:31:16;;;;;;;;;;;;;;;;;;5305139;28;19908;-72
2023/07/19 08:33:47;;;;;;;;;;;;;;;;;;5304825;28;19931;-72
2023/07/19 08:36:18;;;;;;;;;;;;;;;;;;5304482;28;19914;-73
2023/07/19 08:38:49;;;;;;;;;;;;;;;;;;5304602;28;19908;-72
2023/07/19 08:41:21;;;;;;;;;;;;;;;;;;5304460;28;20002;-72
2023/07/19 08:43:52;;;;;;;;;;;;;;;;;;5304165;28;20457;-73
2023/07/19 08:46:23;;;;;;;;;;;;;;;;;;5304875;28;20333;-72
2023/07/19 08:48:54;;;;;;;;;;;;;;;;;;5303933;28;19904;-72
2023/07/19 08:51:26;;;;;;;;;;;;;;;;;;5304561;28;19910;-73
2023/07/19 08:53:58;;;;;;;;;;;;;;;;;;5304553;28;20358;-73
2023/07/19 08:56:29;;;;;;;;;;;;;;;;;;5303792;28;19965;-73
2023/07/19 08:59:00;;;;;;;;;;;;;;;;;;5304712;28;20258;-73
2023/07/19 09:01:31;;;;;;;;;;;;;;;;;;5304165;28;19904;-73
2023/07/19 09:04:02;;;;;;;;;;;;;;;;;;5303871;28;19912;-72
2023/07/19 09:06:33;;;;;;;;;;;;;;;;;;5303787;28;19904;-73
2023/07/19 09:09:05;;;;;;;;;;;;;;;;;;5303894;28;19904;-73
2023/07/19 09:11:36;;;;;;;;;;;;;;;;;;5303987;28;19911;-74
2023/07/19 09:14:07;;;;;;;;;;;;;;;;;;5303584;28;19904;-73
2023/07/19 09:16:38;;;;;;;;;;;;;;;;;;5303019;28;20046;-73
2023/07/19 09:19:10;;;;;;;;;;;;;;;;;;5304525;28;19908;-73
2023/07/19 09:21:46;;;;;;;;;;;;;;;;;;5303969;28;19939;-73
2023/07/19 09:24:17;;;;;;;;;;;;;;;;;;5303725;28;19904;-73
2023/07/19 09:26:49;;;;;;;;;;;;;;;;;;5303802;28;19922;-73
2023/07/19 09:29:20;;;;;;;;;;;;;;;;;;5304178;28;19904;-73
2023/07/19 09:31:54;;;;;;;;;;;;;;;;;;5302696;28;19912;-73
2023/07/19 09:34:25;;;;;;;;;;;;;;;;;;5303879;28;19904;-73
2023/07/19 09:36:56;;;;;;;;;;;;;;;;;;5303952;28;19904;-73
2023/07/19 09:39:27;;;;;;;;;;;;;;;;;;5303095;28;19904;-73
2023/07/19 09:41:59;;;;;;;;;;;;;;;;;;5303580;28;19907;-72
2023/07/19 09:44:30;;;;;;;;;;;;;;;;;;5302912;28;19904;-73
2023/07/19 09:47:01;;;;;;;;;;;;;;;;;;5304300;28;19900;-74
2023/07/19 09:49:32;;;;;;;;;;;;;;;;;;5303516;28;19904;-74
2023/07/19 09:52:03;;;;;;;;;;;;;;;;;;5303019;28;19906;-74
2023/07/19 09:54:34;;;;;;;;;;;;;;;;;;5303009;28;20351;-73
2023/07/19 09:57:05;;;;;;;;;;;;;;;;;;5303845;28;19900;-73
2023/07/19 09:59:36;;;;;;;;;;;;;;;;;;5302397;28;19908;-73
2023/07/19 10:02:08;;;;;;;;;;;;;;;;;;5303575;28;19908;-73
2023/07/19 10:04:39;;;;;;;;;;;;;;;;;;5303068;28;19908;-73
2023/07/19 10:07:10;;;;;;;;;;;;;;;;;;5303078;28;19924;-73
2023/07/19 10:09:41;;;;;;;;;;;;;;;;;;5302948;28;19904;-73
2023/07/19 10:12:12;;;;;;;;;;;;;;;;;;5303494;28;19904;-73
2023/07/19 10:14:43;;;;;;;;;;;;;;;;;;5302096;28;20316;-73
2023/07/19 10:17:15;;;;;;;;;;;;;;;;;;5303268;28;19904;-73
2023/07/19 10:19:46;;;;;;;;;;;;;;;;;;5302066;28;20373;-73
2023/07/19 10:22:17;;;;;;;;;;;;;;;;;;5303349;28;19934;-73
2023/07/19 10:24:48;;;;;;;;;;;;;;;;;;5302561;28;20278;-73
2023/07/19 10:27:19;;;;;;;;;;;;;;;;;;5301994;28;19911;-73
2023/07/19 10:29:50;;;;;;;;;;;;;;;;;;5302429;28;20389;-73
2023/07/19 10:32:21;;;;;;;;;;;;;;;;;;5302933;28;20408;-73
2023/07/19 10:34:54;;;;;;;;;;;;;;;;;;5301544;28;19956;-73
2023/07/19 10:37:25;;;;;;;;;;;;;;;;;;5303044;28;19904;-73
2023/07/19 10:39:56;;;;;;;;;;;;;;;;;;5302900;28;19904;-73
2023/07/19 10:42:27;;;;;;;;;;;;;;;;;;5301985;28;19916;-73
2023/07/19 10:44:58;;;;;;;;;;;;;;;;;;5302630;28;20343;-73
2023/07/19 10:47:29;;;;;;;;;;;;;;;;;;5302554;28;19995;-73
2023/07/19 10:50:01;;;;;;;;;;;;;;;;;;5302585;28;19904;-73
2023/07/19 10:52:32;;;;;;;;;;;;;;;;;;5302408;28;19907;-73
2023/07/19 10:55:03;;;;;;;;;;;;;;;;;;5302068;28;19981;-73
2023/07/19 10:57:34;;;;;;;;;;;;;;;;;;5302496;28;20374;-73
2023/07/19 11:00:07;;;;;;;;;;;;;;;;;;5303157;28;19957;-73
2023/07/19 11:02:38;;;;;;;;;;;;;;;;;;5301194;28;19916;-73
2023/07/19 11:05:09;;;;;;;;;;;;;;;;;;5302604;28;19954;-73
2023/07/19 11:07:41;;;;;;;;;;;;;;;;;;5302326;28;19957;-73
2023/07/19 11:10:12;;;;;;;;;;;;;;;;;;5302001;28;19911;-73
2023/07/19 11:12:43;;;;;;;;;;;;;;;;;;5302194;28;20751;-73
2023/07/19 11:15:14;;;;;;;;;;;;;;;;;;5302541;28;19904;-73
2023/07/19 11:17:45;;;;;;;;;;;;;;;;;;5301029;28;19950;-74
2023/07/19 11:20:16;;;;;;;;;;;;;;;;;;5302419;28;19904;-73
2023/07/19 11:22:47;;;;;;;;;;;;;;;;;;5301240;28;19985;-74
2023/07/19 11:25:19;;;;;;;;;;;;;;;;;;5302441;28;19908;-73
2023/07/19 11:27:50;;;;;;;;;;;;;;;;;;5301946;28;20358;-73
2023/07/19 11:30:23;;;;;;;;;;;;;;;;;;5301599;28;19904;-73
2023/07/19 11:32:54;;;;;;;;;;;;;;;;;;5301996;28;19916;-74
2023/07/19 11:35:29;;;;;;;;;;;;;;;;;;5302206;28;19911;-74
2023/07/19 11:38:01;;;;;;;;;;;;;;;;;;5302911;28;19904;-73
2023/07/19 11:40:32;;;;;;;;;;;;;;;;;;5305734;28;20274;-74
2023/07/19 11:43:03;;;;;;;;;;;;;;;;;;5306604;28;19912;-73
2023/07/19 11:45:34;;;;;;;;;;;;;;;;;;5305132;28;20362;-73
2023/07/19 11:48:05;;;;;;;;;;;;;;;;;;5306343;28;19957;-73
2023/07/19 11:50:38;;;;;;;;;;;;;;;;;;5305786;28;20395;-73
2023/07/19 11:53:09;;;;;;;;;;;;;;;;;;5305380;28;20032;-73
2023/07/19 11:55:40;;;;;;;;;;;;;;;;;;5305710;28;19942;-73
2023/07/19 11:58:11;;;;;;;;;;;;;;;;;;5305460;28;19961;-72
2023/07/19 12:00:42;;;;;;;;;;;;;;;;;;5305682;28;19904;-73
2023/07/19 12:03:19;;;;;;;;;;;;;;;;;;5306008;28;19913;-73
2023/07/19 12:05:51;;;;;;;;;;;;;;;;;;5304204;28;19916;-73
2023/07/19 12:08:22;;;;;;;;;;;;;;;;;;5305803;28;19904;-73
2023/07/19 12:10:53;;;;;;;;;;;;;;;;;;5305026;28;19904;-73
2023/07/19 12:13:24;;;;;;;;;;;;;;;;;;5304352;28;19910;-73
2023/07/19 12:15:55;;;;;;;;;;;;;;;;;;5305003;28;19910;-73
2023/07/19 12:18:26;;;;;;;;;;;;;;;;;;5305098;28;19910;-73
2023/07/19 12:20:57;;;;;;;;;;;;;;;;;;5304055;28;19914;-73
2023/07/19 12:23:29;;;;;;;;;;;;;;;;;;5304797;28;19911;-73
2023/07/19 12:26:01;;;;;;;;;;;;;;;;;;5304124;28;19935;-73
2023/07/19 12:28:32;;;;;;;;;;;;;;;;;;5304099;28;19977;-73
2023/07/19 12:31:03;;;;;;;;;;;;;;;;;;5304759;28;19959;-73
2023/07/19 12:33:34;;;;;;;;;;;;;;;;;;5303748;28;19937;-73
2023/07/19 12:36:05;;;;;;;;;;;;;;;;;;5305389;28;19949;-73
2023/07/19 12:38:36;;;;;;;;;;;;;;;;;;5304676;28;20376;-74
2023/07/19 12:41:07;;;;;;;;;;;;;;;;;;5304258;28;19948;-73
2023/07/19 12:43:38;;;;;;;;;;;;;;;;;;5304399;28;19912;-73
2023/07/19 12:46:09;;;;;;;;;;;;;;;;;;5305026;28;19904;-73
2023/07/19 12:48:40;;;;;;;;;;;;;;;;;;5302868;28;19904;-73
2023/07/19 12:51:12;;;;;;;;;;;;;;;;;;5304525;28;20338;-74
2023/07/19 12:53:43;;;;;;;;;;;;;;;;;;5304012;28;20353;-74
2023/07/19 12:56:15;;;;;;;;;;;;;;;;;;5303820;28;19904;-74
2023/07/19 12:58:46;;;;;;;;;;;;;;;;;;5304070;28;19904;-74
2023/07/19 13:01:18;;;;;;;;;;;;;;;;;;5303692;28;19904;-74
2023/07/19 13:03:49;;;;;;;;;;;;;;;;;;5303766;28;19916;-73
2023/07/19 13:06:21;;;;;;;;;;;;;;;;;;5304545;28;19904;-74
2023/07/19 13:08:52;;;;;;;;;;;;;;;;;;5303233;28;19904;-73
2023/07/19 13:11:23;;;;;;;;;;;;;;;;;;5304111;28;20007;-74
2023/07/19 13:13:54;;;;;;;;;;;;;;;;;;5303980;28;19911;-73
2023/07/19 13:16:25;;;;;;;;;;;;;;;;;;5303128;28;19904;-73
2023/07/19 13:18:56;;;;;;;;;;;;;;;;;;5304254;28;20239;-73
2023/07/19 13:21:27;;;;;;;;;;;;;;;;;;5303695;28;19908;-73
2023/07/19 13:23:59;;;;;;;;;;;;;;;;;;5302768;28;20339;-72
2023/07/19 13:26:30;;;;;;;;;;;;;;;;;;5303692;28;20271;-73
2023/07/19 13:29:01;;;;;;;;;;;;;;;;;;5303900;28;19998;-72
2023/07/19 13:31:32;;;;;;;;;;;;;;;;;;5302585;28;20302;-73
2023/07/19 13:34:03;;;;;;;;;;;;;;;;;;5304062;28;19904;-73
2023/07/19 13:36:34;;;;;;;;;;;;;;;;;;5302539;28;19911;-73
2023/07/19 13:39:05;;;;;;;;;;;;;;;;;;5303781;28;19904;-73
2023/07/19 13:41:38;;;;;;;;;;;;;;;;;;5303142;28;19904;-73
2023/07/19 13:44:09;;;;;;;;;;;;;;;;;;5303141;28;19912;-73
2023/07/19 13:46:40;;;;;;;;;;;;;;;;;;5303277;28;19911;-73
2023/07/19 13:49:11;;;;;;;;;;;;;;;;;;5303667;28;19955;-73
2023/07/19 13:51:42;;;;;;;;;;;;;;;;;;5302434;28;19910;-73
2023/07/19 13:54:13;;;;;;;;;;;;;;;;;;5303715;28;19904;-73
2023/07/19 13:56:44;;;;;;;;;;;;;;;;;;5303440;28;19969;-72
2023/07/19 13:59:15;;;;;;;;;;;;;;;;;;5302983;28;19904;-72
2023/07/19 14:01:47;;;;;;;;;;;;;;;;;;5302192;28;19961;-72
2023/07/19 14:04:18;;;;;;;;;;;;;;;;;;5303476;28;19983;-72
2023/07/19 14:06:50;;;;;;;;;;;;;;;;;;5302317;28;20319;-73
2023/07/19 14:09:21;;;;;;;;;;;;;;;;;;5303630;28;19912;-72
2023/07/19 14:11:52;;;;;;;;;;;;;;;;;;5302193;28;19947;-73
2023/07/19 14:14:23;;;;;;;;;;;;;;;;;;5303119;28;20373;-72
2023/07/19 14:16:54;;;;;;;;;;;;;;;;;;5302943;28;19904;-72
2023/07/19 14:19:25;;;;;;;;;;;;;;;;;;5302578;28;20027;-73
2023/07/19 14:21:56;;;;;;;;;;;;;;;;;;5303127;28;19915;-74
2023/07/19 14:24:28;;;;;;;;;;;;;;;;;;5303173;28;19911;-73
2023/07/19 14:26:59;;;;;;;;;;;;;;;;;;5302037;28;19904;-72
2023/07/19 14:29:30;;;;;;;;;;;;;;;;;;5298978;28;19908;-72
2023/07/19 14:32:01;;;;;;;;;;;;;;;;;;5312425;28;19969;-73
2023/07/19 14:34:32;;;;;;;;;;;;;;;;;;5321952;28;19904;-72
2023/07/19 14:37:03;;;;;;;;;;;;;;;;;;5324242;28;19903;-73
2023/07/19 14:39:34;;;;;;;;;;;;;;;;;;5323253;28;19903;-72
2023/07/19 14:42:05;;;;;;;;;;;;;;;;;;5321053;28;20017;-73
2023/07/19 14:44:36;;;;;;;;;;;;;;;;;;5322895;28;19976;-75
2023/07/19 14:47:07;;;;;;;;;;;;;;;;;;5323487;28;20259;-73
2023/07/19 14:49:39;;;;;;;;;;;;;;;;;;5323457;28;19948;-73
2023/07/19 14:52:10;;;;;;;;;;;;;;;;;;5324225;28;20273;-73
2023/07/19 14:54:42;;;;;;;;;;;;;;;;;;5322876;28;19949;-74
2023/07/19 14:57:13;;;;;;;;;;;;;;;;;;5324113;28;19904;-78
2023/07/19 14:59:44;;;;;;;;;;;;;;;;;;5323532;28;20308;-77
2023/07/19 15:02:15;;;;;;;;;;;;;;;;;;5323416;28;19914;-76
2023/07/19 15:04:46;;;;;;;;;;;;;;;;;;5323254;28;19908;-76
2023/07/19 15:07:17;;;;;;;;;;;;;;;;;;5324247;28;19914;-79
2023/07/19 15:09:49;;;;;;;;;;;;;;;;;;5322458;28;20225;-76
2023/07/19 15:12:20;;;;;;;;;;;;;;;;;;5326361;28;20354;-77
2023/07/19 15:14:51;;;;;;;;;;;;;;;;;;5326947;28;19903;-76
2023/07/19 15:17:22;;;;;;;;;;;;;;;;;;5328250;28;19907;-76
2023/07/19 15:19:54;;;;;;;;;;;;;;;;;;5327712;28;20347;-77
2023/07/19 15:22:25;;;;;;;;;;;;;;;;;;5327192;28;19935;-76
2023/07/19 15:24:56;;;;;;;;;;;;;;;;;;5327765;28;19962;-77
2023/07/19 15:27:27;;;;;;;;;;;;;;;;;;5327750;28;19908;-77
2023/07/19 15:29:59;;;;;;;;;;;;;;;;;;5326696;28;19908;-76
2023/07/19 15:32:30;;;;;;;;;;;;;;;;;;5327037;28;19957;-77
2023/07/19 15:35:01;;;;;;;;;;;;;;;;;;5327947;28;20265;-77
2023/07/19 15:37:32;;;;;;;;;;;;;;;;;;5326725;28;19907;-77
2023/07/19 15:40:03;;;;;;;;;;;;;;;;;;5327572;28;20338;-77
2023/07/19 15:42:35;;;;;;;;;;;;;;;;;;5327115;28;19912;-77
2023/07/19 15:45:06;;;;;;;;;;;;;;;;;;5326918;28;19991;-77
2023/07/19 15:47:37;;;;;;;;;;;;;;;;;;5326890;28;20325;-77
2023/07/19 15:50:08;;;;;;;;;;;;;;;;;;5326888;28;19965;-77
2023/07/19 15:52:40;;;;;;;;;;;;;;;;;;5326842;28;19956;-77
2023/07/19 15:55:11;;;;;;;;;;;;;;;;;;5327677;28;19934;-77
2023/07/19 15:57:43;;;;;;;;;;;;;;;;;;5325926;28;19948;-77
2023/07/19 16:00:14;;;;;;;;;;;;;;;;;;5327437;28;19904;-76
2023/07/19 16:02:45;;;;;;;;;;;;;;;;;;5326592;28;20342;-77
2023/07/19 16:05:16;;;;;;;;;;;;;;;;;;5326347;28;20022;-76
2023/07/19 16:07:47;;;;;;;;;;;;;;;;;;5326137;28;19915;-76
2023/07/19 16:10:19;;;;;;;;;;;;;;;;;;5327097;28;19904;-76
2023/07/19 16:12:53;;;;;;;;;;;;;;;;;;5325555;28;19907;-76
2023/07/19 16:15:24;;;;;;;;;;;;;;;;;;5326736;28;19911;-76
2023/07/19 16:17:55;;;;;;;;;;;;;;;;;;5326614;28;19904;-76
2023/07/19 16:20:27;;;;;;;;;;;;;;;;;;5325819;28;19910;-76
2023/07/19 16:22:58;;;;;;;;;;;;;;;;;;5325906;28;20018;-76
2023/07/19 16:25:29;;;;;;;;;;;;;;;;;;5325164;28;20320;-76
2023/07/19 16:28:00;;;;;;;;;;;;;;;;;;5326407;28;19911;-75
2023/07/19 16:30:31;;;;;;;;;;;;;;;;;;5325990;28;20278;-76
2023/07/19 16:33:02;;;;;;;;;;;;;;;;;;5325539;28;19923;-75
2023/07/19 16:35:33;;;;;;;;;;;;;;;;;;5318470;28;20339;-75
2023/07/19 16:38:04;;;;;;;;;;;;;;;;;;5304423;28;20244;-74
2023/07/19 16:40:35;;;;;;;;;;;;;;;;;;5303017;28;20200;-74
2023/07/19 16:43:07;;;;;;;;;;;;;;;;;;5304479;28;19916;-74
2023/07/19 16:45:38;;;;;;;;;;;;;;;;;;5304680;28;20339;-74
2023/07/19 16:48:09;;;;;;;;;;;;;;;;;;5304164;28;19904;-74
2023/07/19 16:50:40;;;;;;;;;;;;;;;;;;5303043;28;19994;-74
2023/07/19 16:53:11;;;;;;;;;;;;;;;;;;5304776;28;20016;-76
2023/07/19 16:55:42;;;;;;;;;;;;;;;;;;5303633;28;20270;-76
2023/07/19 16:58:13;;;;;;;;;;;;;;;;;;5304816;28;19904;-75
2023/07/19 17:00:44;;;;;;;;;;;;;;;;;;5303407;28;19910;-75
2023/07/19 17:03:16;;;;;;;;;;;;;;;;;;5304879;28;19912;-75
2023/07/19 17:05:47;;;;;;;;;;;;;;;;;;5304042;28;19904;-74
2023/07/19 17:08:19;;;;;;;;;;;;;;;;;;5303870;28;19980;-75
2023/07/19 17:10:50;;;;;;;;;;;;;;;;;;5304044;28;19919;-74
2023/07/19 17:13:21;;;;;;;;;;;;;;;;;;5304370;28;19904;-74